Time;durP1;ratioP1;P1;durP2;ratioP2;P2;SDS_P1;SDS_P2;PMS_P1;PMS_P2;Temp;Humidity;BMP_temperature;BMP_pressure;BME280_temperature;BME280_humidity;BME280_pressure;Samples;Min_cycle;Max_cycle;Signal;HPM_P1;HPM_P2
2021/08/08 00:00:48;;;;;;;2.43;1.23;;;;;;;;;;4949966;28;20334;-82
2021/08/08 00:03:13;;;;;;;6.40;1.50;;;;;;;;;;4935120;29;20279;-82
2021/08/08 00:05:39;;;;;;;4.68;1.70;;;;;;;;;;4934996;29;20030;-82
2021/08/08 00:08:04;;;;;;;4.53;1.40;;;;;;;;;;4947804;29;20034;-82
2021/08/08 00:10:30;;;;;;;4.13;1.60;;;;;;;;;;4948820;29;20889;-84
2021/08/08 00:12:55;;;;;;;5.10;1.60;;;;;;;;;;4945453;28;20031;-83
2021/08/08 00:15:20;;;;;;;4.33;1.53;;;;;;;;;;4938474;29;20030;-81
2021/08/08 00:17:46;;;;;;;1.23;1.13;;;;;;;;;;4942589;29;20255;-81
2021/08/08 00:20:12;;;;;;;7.72;1.98;;;;;;;;;;4942855;28;20106;-81
2021/08/08 00:22:37;;;;;;;8.57;1.70;;;;;;;;;;4935684;29;20580;-81
2021/08/08 00:25:04;;;;;;;3.65;1.40;;;;;;;;;;4946149;28;20023;-80
2021/08/08 00:27:29;;;;;;;1.75;1.20;;;;;;;;;;4944130;29;20383;-81
2021/08/08 00:29:54;;;;;;;7.20;1.70;;;;;;;;;;4947794;29;20110;-81
2021/08/08 00:32:19;;;;;;;6.03;1.83;;;;;;;;;;4944572;28;20335;-81
2021/08/08 00:34:45;;;;;;;6.83;1.50;;;;;;;;;;4931692;29;20031;-81
2021/08/08 00:37:10;;;;;;;3.87;1.67;;;;;;;;;;4934996;29;20254;-81
2021/08/08 00:39:36;;;;;;;4.70;1.33;;;;;;;;;;4937334;29;20274;-81
2021/08/08 00:42:01;;;;;;;4.90;1.67;;;;;;;;;;4947337;29;20498;-82
2021/08/08 00:44:26;;;;;;;5.63;2.20;;;;;;;;;;4940649;29;20472;-81
2021/08/08 00:46:51;;;;;;;1.27;1.17;;;;;;;;;;4935980;29;20031;-82
2021/08/08 00:49:17;;;;;;;5.30;1.83;;;;;;;;;;4958904;28;20353;-81
2021/08/08 00:51:42;;;;;;;4.18;1.55;;;;;;;;;;4939358;29;20028;-82
2021/08/08 00:54:07;;;;;;;3.17;1.33;;;;;;;;;;4942453;29;20023;-82
2021/08/08 00:56:33;;;;;;;10.70;2.05;;;;;;;;;;4935256;29;20291;-81
2021/08/08 00:58:58;;;;;;;3.40;2.00;;;;;;;;;;4947650;28;20079;-82
2021/08/08 01:01:25;;;;;;;5.05;1.85;;;;;;;;;;4942012;29;20067;-81
2021/08/08 01:03:51;;;;;;;8.07;1.88;;;;;;;;;;4930680;29;20780;-82
2021/08/08 01:06:20;;;;;;;5.95;1.60;;;;;;;;;;4943433;29;20430;-81
2021/08/08 01:08:52;;;;;;;7.63;1.60;;;;;;;;;;4944006;29;20016;-81
2021/08/08 01:11:21;;;;;;;2.88;1.38;;;;;;;;;;4934266;29;20689;-82
2021/08/08 01:13:47;;;;;;;7.77;2.00;;;;;;;;;;4943644;28;20477;-81
2021/08/08 01:16:14;;;;;;;7.75;1.38;;;;;;;;;;4949474;28;20050;-82
2021/08/08 01:18:40;;;;;;;3.78;1.30;;;;;;;;;;4945501;29;20692;-82
2021/08/08 01:21:05;;;;;;;4.43;1.65;;;;;;;;;;4942342;28;20019;-81
2021/08/08 01:23:32;;;;;;;6.75;2.00;;;;;;;;;;4935019;29;20485;-81
2021/08/08 01:25:58;;;;;;;8.48;1.58;;;;;;;;;;4934666;29;20038;-81
2021/08/08 01:28:23;;;;;;;4.75;1.58;;;;;;;;;;4948499;28;20023;-80
2021/08/08 01:30:49;;;;;;;6.50;1.27;;;;;;;;;;4939724;29;20106;-80
2021/08/08 01:33:14;;;;;;;4.05;1.77;;;;;;;;;;4951841;28;20259;-80
2021/08/08 01:35:41;;;;;;;4.90;1.50;;;;;;;;;;4944133;29;20019;-80
2021/08/08 01:38:07;;;;;;;8.57;2.30;;;;;;;;;;4934516;29;20114;-80
2021/08/08 01:40:36;;;;;;;6.85;1.45;;;;;;;;;;4948042;28;20540;-80
2021/08/08 01:43:03;;;;;;;3.53;1.55;;;;;;;;;;4948405;29;20440;-80
2021/08/08 01:45:28;;;;;;;2.60;1.33;;;;;;;;;;4947414;28;20046;-81
2021/08/08 01:47:55;;;;;;;7.57;1.92;;;;;;;;;;4947529;29;20032;-82
2021/08/08 01:50:20;;;;;;;3.58;1.30;;;;;;;;;;4940636;28;20157;-81
2021/08/08 01:52:46;;;;;;;4.55;1.42;;;;;;;;;;4946767;28;20654;-81
2021/08/08 01:55:14;;;;;;;3.08;1.67;;;;;;;;;;4944296;29;20058;-81
2021/08/08 01:57:39;;;;;;;9.95;1.55;;;;;;;;;;4950185;28;20035;-81
2021/08/08 02:00:08;;;;;;;8.73;1.73;;;;;;;;;;4945985;29;20505;-82
2021/08/08 02:02:33;;;;;;;6.23;1.50;;;;;;;;;;4942504;29;20038;-80
2021/08/08 02:04:59;;;;;;;4.40;1.40;;;;;;;;;;4945754;29;20015;-80
2021/08/08 02:07:24;;;;;;;7.30;1.92;;;;;;;;;;4951949;28;20051;-81
2021/08/08 02:09:50;;;;;;;5.50;1.47;;;;;;;;;;4951156;29;20505;-83
2021/08/08 02:12:15;;;;;;;8.20;1.58;;;;;;;;;;4934800;29;20805;-82
2021/08/08 02:14:40;;;;;;;4.57;1.50;;;;;;;;;;4955279;28;20463;-81
2021/08/08 02:17:06;;;;;;;3.90;1.53;;;;;;;;;;4942947;29;20471;-82
2021/08/08 02:19:32;;;;;;;2.45;1.70;;;;;;;;;;4948869;28;20286;-82
2021/08/08 02:21:57;;;;;;;6.47;1.50;;;;;;;;;;4946152;28;20455;-81
2021/08/08 02:24:23;;;;;;;2.90;1.30;;;;;;;;;;4946045;28;20054;-81
2021/08/08 02:26:48;;;;;;;3.08;1.60;;;;;;;;;;4949590;28;20038;-81
2021/08/08 02:29:14;;;;;;;5.28;1.80;;;;;;;;;;4950160;29;20035;-81
2021/08/08 02:31:40;;;;;;;6.07;1.57;;;;;;;;;;4952398;29;20035;-80
2021/08/08 02:34:06;;;;;;;7.50;1.65;;;;;;;;;;4934378;28;20759;-81
2021/08/08 02:36:32;;;;;;;6.13;1.48;;;;;;;;;;4939545;29;20031;-81
2021/08/08 02:38:57;;;;;;;2.83;1.50;;;;;;;;;;4951041;28;20035;-81
2021/08/08 02:41:22;;;;;;;4.43;1.40;;;;;;;;;;4951128;28;20022;-81
2021/08/08 02:43:48;;;;;;;6.30;1.45;;;;;;;;;;4945653;28;20482;-80
2021/08/08 02:46:13;;;;;;;9.02;1.35;;;;;;;;;;4945844;28;20029;-80
2021/08/08 02:48:39;;;;;;;4.77;1.30;;;;;;;;;;4944706;29;20098;-81
2021/08/08 02:51:04;;;;;;;4.35;1.52;;;;;;;;;;4946426;28;20342;-81
2021/08/08 02:53:30;;;;;;;7.70;1.80;;;;;;;;;;4945812;29;20073;-81
2021/08/08 02:55:55;;;;;;;6.10;1.60;;;;;;;;;;4944463;29;20062;-81
2021/08/08 02:58:20;;;;;;;6.23;1.77;;;;;;;;;;4947912;29;20259;-81
2021/08/08 03:00:45;;;;;;;2.53;1.73;;;;;;;;;;4945487;29;20266;-81
2021/08/08 03:03:11;;;;;;;4.40;1.67;;;;;;;;;;4945293;29;20277;-81
2021/08/08 03:05:36;;;;;;;2.42;1.50;;;;;;;;;;4944861;29;20106;-81
2021/08/08 03:08:01;;;;;;;2.93;1.10;;;;;;;;;;4945818;29;20059;-81
2021/08/08 03:10:27;;;;;;;4.63;2.33;;;;;;;;;;4941845;29;20271;-81
2021/08/08 03:12:52;;;;;;;5.47;1.53;;;;;;;;;;4945402;29;20031;-81
2021/08/08 03:15:17;;;;;;;3.97;1.87;;;;;;;;;;4950653;29;20283;-82
2021/08/08 03:17:42;;;;;;;3.60;1.92;;;;;;;;;;4943765;29;20278;-81
2021/08/08 03:20:08;;;;;;;8.30;1.88;;;;;;;;;;4944722;28;20026;-81
2021/08/08 03:22:34;;;;;;;6.28;1.90;;;;;;;;;;4943448;29;20419;-83
2021/08/08 03:24:59;;;;;;;8.10;1.40;;;;;;;;;;4946993;29;20065;-81
2021/08/08 03:27:24;;;;;;;2.73;1.40;;;;;;;;;;4944695;29;20107;-81
2021/08/08 03:29:49;;;;;;;5.17;1.37;;;;;;;;;;4947903;29;20274;-80
2021/08/08 03:32:15;;;;;;;5.55;1.50;;;;;;;;;;4947368;28;20255;-81
2021/08/08 03:34:40;;;;;;;6.60;1.80;;;;;;;;;;4944063;28;20024;-80
2021/08/08 03:37:06;;;;;;;5.85;1.30;;;;;;;;;;4934979;29;20023;-81
2021/08/08 03:39:31;;;;;;;5.30;1.43;;;;;;;;;;4943755;29;20020;-81
2021/08/08 03:41:56;;;;;;;6.68;1.60;;;;;;;;;;4949661;28;20385;-81
2021/08/08 03:44:21;;;;;;;5.70;1.40;;;;;;;;;;4948435;29;20026;-81
2021/08/08 03:46:47;;;;;;;4.10;1.27;;;;;;;;;;4948377;29;20034;-81
2021/08/08 03:49:13;;;;;;;3.85;1.48;;;;;;;;;;4944816;28;20030;-81
2021/08/08 03:51:38;;;;;;;2.65;1.30;;;;;;;;;;4932814;29;20031;-81
2021/08/08 03:54:04;;;;;;;4.20;1.30;;;;;;;;;;4937673;29;20029;-81
2021/08/08 03:56:29;;;;;;;10.40;1.70;;;;;;;;;;4941169;28;20048;-81
2021/08/08 03:58:55;;;;;;;8.38;1.52;;;;;;;;;;4947990;29;20030;-81
2021/08/08 04:01:20;;;;;;;3.28;1.40;;;;;;;;;;4946539;28;20024;-80
2021/08/08 04:03:45;;;;;;;6.50;2.22;;;;;;;;;;4947475;29;20015;-81
2021/08/08 04:06:11;;;;;;;5.28;1.35;;;;;;;;;;4941892;29;20049;-81
2021/08/08 04:08:36;;;;;;;3.42;1.00;;;;;;;;;;4948285;29;20054;-81
2021/08/08 04:11:01;;;;;;;5.05;1.92;;;;;;;;;;4943572;28;20117;-81
2021/08/08 04:13:27;;;;;;;4.93;1.48;;;;;;;;;;4940223;29;20055;-82
2021/08/08 04:15:52;;;;;;;3.53;1.50;;;;;;;;;;4934729;29;20019;-82
2021/08/08 04:18:17;;;;;;;3.53;1.43;;;;;;;;;;4940719;29;20263;-82
2021/08/08 04:20:43;;;;;;;3.90;1.67;;;;;;;;;;4941959;29;20282;-82
2021/08/08 04:23:10;;;;;;;7.38;1.77;;;;;;;;;;4946891;28;20023;-82
2021/08/08 04:25:36;;;;;;;8.90;1.65;;;;;;;;;;4946169;29;20375;-81
2021/08/08 04:28:01;;;;;;;5.47;1.70;;;;;;;;;;4948709;28;20030;-80
2021/08/08 04:30:27;;;;;;;5.83;1.70;;;;;;;;;;4942399;29;20041;-81
2021/08/08 04:32:53;;;;;;;3.30;1.50;;;;;;;;;;4936284;28;20273;-81
2021/08/08 04:35:18;;;;;;;4.57;1.65;;;;;;;;;;4931727;29;20624;-81
2021/08/08 04:37:44;;;;;;;8.48;1.50;;;;;;;;;;4931340;29;20128;-81
2021/08/08 04:40:10;;;;;;;5.55;1.20;;;;;;;;;;4944732;29;20046;-81
2021/08/08 04:42:36;;;;;;;4.43;1.45;;;;;;;;;;4947958;28;20380;-81
2021/08/08 04:45:01;;;;;;;9.93;1.85;;;;;;;;;;4938290;29;20446;-81
2021/08/08 04:47:30;;;;;;;2.17;1.30;;;;;;;;;;4938656;29;20015;-81
2021/08/08 04:49:55;;;;;;;5.53;1.50;;;;;;;;;;4940285;29;20474;-81
2021/08/08 04:52:20;;;;;;;4.60;1.40;;;;;;;;;;4937413;29;20251;-80
2021/08/08 04:54:45;;;;;;;3.80;1.50;;;;;;;;;;4943158;29;20383;-81
2021/08/08 04:57:11;;;;;;;7.80;1.83;;;;;;;;;;4947375;28;20364;-81
2021/08/08 04:59:36;;;;;;;3.55;1.30;;;;;;;;;;4941564;29;20015;-81
2021/08/08 05:02:01;;;;;;;6.23;1.43;;;;;;;;;;4936953;29;20023;-80
2021/08/08 05:04:27;;;;;;;5.95;1.55;;;;;;;;;;4948492;29;20265;-81
2021/08/08 05:06:52;;;;;;;11.63;1.77;;;;;;;;;;4937426;29;20038;-81
2021/08/08 05:09:18;;;;;;;3.23;1.47;;;;;;;;;;4943479;29;20024;-81
2021/08/08 05:11:43;;;;;;;5.80;1.58;;;;;;;;;;4936057;28;20318;-82
2021/08/08 05:14:08;;;;;;;3.47;1.60;;;;;;;;;;4944495;29;20015;-82
2021/08/08 05:16:34;;;;;;;2.97;1.40;;;;;;;;;;4945974;28;20299;-81
2021/08/08 05:18:59;;;;;;;3.93;1.20;;;;;;;;;;4933312;29;20091;-80
2021/08/08 05:21:24;;;;;;;2.63;1.40;;;;;;;;;;4944430;29;20251;-81
2021/08/08 05:23:50;;;;;;;4.97;2.15;;;;;;;;;;4947784;28;20263;-81
2021/08/08 05:26:15;;;;;;;2.90;1.93;;;;;;;;;;4947139;29;20026;-82
2021/08/08 05:28:42;;;;;;;6.20;2.03;;;;;;;;;;4937309;29;20291;-81
2021/08/08 05:31:07;;;;;;;6.03;1.75;;;;;;;;;;4936240;29;20267;-81
2021/08/08 05:33:32;;;;;;;5.50;1.60;;;;;;;;;;4944601;29;20022;-82
2021/08/08 05:35:58;;;;;;;5.75;2.10;;;;;;;;;;4934574;29;20020;-82
2021/08/08 05:38:23;;;;;;;6.00;2.47;;;;;;;;;;4946757;29;20047;-82
2021/08/08 05:40:48;;;;;;;5.30;2.00;;;;;;;;;;4941715;29;20110;-82
2021/08/08 05:43:14;;;;;;;7.70;1.80;;;;;;;;;;4940432;29;20248;-81
2021/08/08 05:45:41;;;;;;;3.80;1.60;;;;;;;;;;4938278;28;20722;-82
2021/08/08 05:48:07;;;;;;;3.35;1.50;;;;;;;;;;4941156;29;20020;-81
2021/08/08 05:50:32;;;;;;;6.70;1.67;;;;;;;;;;4946810;29;20023;-81
2021/08/08 05:52:57;;;;;;;6.50;1.77;;;;;;;;;;4934044;29;20506;-82
2021/08/08 05:55:23;;;;;;;6.40;1.60;;;;;;;;;;4936480;29;20103;-82
2021/08/08 05:57:51;;;;;;;2.75;1.42;;;;;;;;;;4949504;28;20019;-81
2021/08/08 06:00:16;;;;;;;6.00;1.42;;;;;;;;;;4934550;29;20070;-82
2021/08/08 06:02:41;;;;;;;1.63;1.30;;;;;;;;;;4943792;29;20023;-81
2021/08/08 06:05:07;;;;;;;2.67;1.30;;;;;;;;;;4941497;29;20731;-82
2021/08/08 06:07:32;;;;;;;4.60;1.42;;;;;;;;;;4948282;29;20038;-82
2021/08/08 06:09:59;;;;;;;4.25;1.63;;;;;;;;;;4947274;29;20110;-82
2021/08/08 06:12:25;;;;;;;3.80;1.30;;;;;;;;;;4949994;29;20046;-82
2021/08/08 06:14:50;;;;;;;4.93;1.57;;;;;;;;;;4951594;29;20693;-82
2021/08/08 06:17:15;;;;;;;2.72;1.30;;;;;;;;;;4950249;29;20720;-82
2021/08/08 06:19:40;;;;;;;6.67;1.47;;;;;;;;;;4951886;29;20114;-82
2021/08/08 06:22:06;;;;;;;4.13;1.60;;;;;;;;;;4935529;29;20283;-84
2021/08/08 06:24:31;;;;;;;2.80;1.70;;;;;;;;;;4941513;29;20267;-83
2021/08/08 06:26:57;;;;;;;5.28;1.35;;;;;;;;;;4938549;29;20031;-82
2021/08/08 06:29:22;;;;;;;1.50;1.00;;;;;;;;;;4944457;29;20039;-82
2021/08/08 06:31:47;;;;;;;4.57;1.27;;;;;;;;;;4949465;28;20023;-82
2021/08/08 06:34:13;;;;;;;3.30;1.13;;;;;;;;;;4932873;29;20023;-83
2021/08/08 06:36:38;;;;;;;2.87;1.40;;;;;;;;;;4935016;29;20175;-84
2021/08/08 06:39:07;;;;;;;4.35;1.40;;;;;;;;;;4941775;29;20034;-83
2021/08/08 06:41:33;;;;;;;;;;;;;;;;;;4946301;29;20423;-84
2021/08/08 06:43:58;;;;;;;4.57;1.13;;;;;;;;;;4949718;29;19913;-82
2021/08/08 06:46:23;;;;;;;2.08;1.13;;;;;;;;;;4944202;28;20371;-85
2021/08/08 06:48:49;;;;;;;2.73;1.13;;;;;;;;;;4950867;29;20024;-83
2021/08/08 06:51:14;;;;;;;2.13;1.07;;;;;;;;;;4940560;29;20279;-85
2021/08/08 06:53:39;;;;;;;4.45;1.67;;;;;;;;;;4952129;28;20806;-84
2021/08/08 06:56:05;;;;;;;4.13;1.33;;;;;;;;;;4941163;28;20594;-83
2021/08/08 06:58:30;;;;;;;4.47;1.17;;;;;;;;;;4938520;29;20767;-84
2021/08/08 07:00:55;;;;;;;2.43;0.80;;;;;;;;;;4951964;29;20027;-83
2021/08/08 07:03:21;;;;;;;3.80;1.30;;;;;;;;;;4939303;29;20757;-84
2021/08/08 07:05:46;;;;;;;1.88;1.38;;;;;;;;;;4940137;29;20031;-83
2021/08/08 07:08:11;;;;;;;2.00;1.10;;;;;;;;;;4945699;29;20529;-83
2021/08/08 07:10:36;;;;;;;3.00;1.50;;;;;;;;;;4950477;28;20279;-83
2021/08/08 07:13:02;;;;;;;13.10;8.50;;;;;;;;;;4951118;29;20055;-83
2021/08/08 07:15:27;;;;;;;5.57;2.78;;;;;;;;;;4947293;28;20063;-84
2021/08/08 07:17:53;;;;;;;2.78;1.42;;;;;;;;;;4938958;29;20023;-85
2021/08/08 07:20:18;;;;;;;2.80;1.40;;;;;;;;;;4943210;28;20027;-84
2021/08/08 07:22:43;;;;;;;4.88;1.25;;;;;;;;;;4933283;29;20020;-83
2021/08/08 07:25:09;;;;;;;11.20;1.63;;;;;;;;;;4936356;29;20023;-82
2021/08/08 07:27:34;;;;;;;3.45;1.63;;;;;;;;;;4937235;29;20115;-83
2021/08/08 07:29:59;;;;;;;6.68;1.90;;;;;;;;;;4936811;29;20019;-83
2021/08/08 07:32:25;;;;;;;2.65;1.35;;;;;;;;;;4948004;28;20620;-85
2021/08/08 07:34:51;;;;;;;7.82;1.98;;;;;;;;;;4939244;28;20388;-84
2021/08/08 07:37:17;;;;;;;2.63;1.30;;;;;;;;;;4945478;28;20027;-84
2021/08/08 07:39:42;;;;;;;4.18;1.33;;;;;;;;;;4946164;29;20021;-85
2021/08/08 07:42:08;;;;;;;3.22;1.30;;;;;;;;;;4950213;28;20062;-84
2021/08/08 07:44:33;;;;;;;2.97;1.20;;;;;;;;;;4944401;28;20074;-84
2021/08/08 07:46:58;;;;;;;3.67;1.48;;;;;;;;;;4937136;28;20067;-84
2021/08/08 07:49:24;;;;;;;3.60;1.25;;;;;;;;;;4944441;28;20035;-84
2021/08/08 07:51:50;;;;;;;3.85;1.42;;;;;;;;;;4941893;29;20011;-84
2021/08/08 07:54:17;;;;;;;3.17;1.13;;;;;;;;;;4947547;28;20106;-82
2021/08/08 07:56:42;;;;;;;3.17;1.20;;;;;;;;;;4942258;28;20135;-84
2021/08/08 07:59:07;;;;;;;2.00;0.93;;;;;;;;;;4951494;29;20043;-84
2021/08/08 08:01:33;;;;;;;5.25;1.60;;;;;;;;;;4951861;28;20107;-85
2021/08/08 08:03:58;;;;;;;6.03;2.10;;;;;;;;;;4947207;29;20466;-85
2021/08/08 08:06:23;;;;;;;4.78;1.90;;;;;;;;;;4939432;28;20046;-84
2021/08/08 08:08:49;;;;;;;5.20;1.87;;;;;;;;;;4948062;29;20019;-84
2021/08/08 08:11:14;;;;;;;2.00;1.27;;;;;;;;;;4939851;29;20024;-85
2021/08/08 08:13:39;;;;;;;2.87;1.20;;;;;;;;;;4948939;29;20023;-85
2021/08/08 08:16:04;;;;;;;2.83;1.33;;;;;;;;;;4938434;29;20034;-86
2021/08/08 08:18:29;;;;;;;1.80;1.10;;;;;;;;;;4934904;29;20323;-86
2021/08/08 08:20:56;;;;;;;2.67;1.13;;;;;;;;;;4935509;28;20758;-85
2021/08/08 08:23:21;;;;;;;3.40;1.20;;;;;;;;;;4946720;28;20028;-87
2021/08/08 08:25:47;;;;;;;4.10;1.33;;;;;;;;;;4935001;29;20079;-85
2021/08/08 08:28:15;;;;;;;2.55;1.40;;;;;;;;;;4935793;29;20023;-85
2021/08/08 08:30:41;;;;;;;8.65;2.78;;;;;;;;;;4940014;28;20579;-87
2021/08/08 08:33:06;;;;;;;2.67;1.20;;;;;;;;;;4944422;28;20029;-85
2021/08/08 08:35:32;;;;;;;6.13;1.55;;;;;;;;;;4938586;28;20024;-83
2021/08/08 08:37:57;;;;;;;3.45;1.30;;;;;;;;;;4932224;29;20052;-85
2021/08/08 08:40:23;;;;;;;3.15;1.25;;;;;;;;;;4946755;29;20095;-86
2021/08/08 08:42:49;;;;;;;4.28;1.27;;;;;;;;;;4936387;29;20016;-86
2021/08/08 08:45:15;;;;;;;3.40;1.30;;;;;;;;;;4942359;29;20443;-85
2021/08/08 08:47:40;;;;;;;6.22;1.40;;;;;;;;;;4938188;29;20110;-90
2021/08/08 08:50:08;;;;;;;3.75;1.33;;;;;;;;;;4949648;29;20473;-87
2021/08/08 08:52:33;;;;;;;5.70;1.63;;;;;;;;;;4939922;28;20470;-85
2021/08/08 08:54:59;;;;;;;3.72;1.30;;;;;;;;;;4938211;29;20107;-85
2021/08/08 08:57:25;;;;;;;5.55;2.50;;;;;;;;;;4943731;29;20402;-85
2021/08/08 08:59:51;;;;;;;10.48;6.57;;;;;;;;;;4941744;28;20028;-84
2021/08/08 09:02:16;;;;;;;3.28;1.90;;;;;;;;;;4940693;29;20027;-86
2021/08/08 09:04:41;;;;;;;3.67;1.20;;;;;;;;;;4944976;28;20086;-86
2021/08/08 09:07:07;;;;;;;5.35;1.42;;;;;;;;;;4932597;29;20024;-84
2021/08/08 09:09:33;;;;;;;2.10;1.30;;;;;;;;;;4938856;29;20470;-86
2021/08/08 09:11:59;;;;;;;3.78;1.33;;;;;;;;;;4935598;29;20369;-84
2021/08/08 09:14:24;;;;;;;3.70;1.40;;;;;;;;;;4953217;28;20019;-83
2021/08/08 09:16:54;;;;;;;2.42;1.58;;;;;;;;;;4950280;28;20059;-83
2021/08/08 09:19:20;;;;;;;5.05;1.60;;;;;;;;;;4935503;29;20446;-84
2021/08/08 09:21:46;;;;;;;2.13;1.48;;;;;;;;;;4942994;28;20027;-83
2021/08/08 09:24:21;;;;;;;2.50;1.13;;;;;;;;;;4942933;29;20201;-85
2021/08/08 09:26:46;;;;;;;5.10;2.33;;;;;;;;;;4947773;28;20563;-84
2021/08/08 09:29:13;;;;;;;6.93;3.13;;;;;;;;;;4936422;29;20031;-84
2021/08/08 09:31:46;;;;;;;4.28;1.70;;;;;;;;;;4950728;28;20270;-83
2021/08/08 09:34:21;;;;;;;2.47;1.33;;;;;;;;;;4963366;29;20046;-82
2021/08/08 09:36:46;;;;;;;4.32;1.10;;;;;;;;;;4954560;28;20501;-83
2021/08/08 09:39:11;;;;;;;3.63;1.77;;;;;;;;;;4944059;29;20020;-84
2021/08/08 09:41:37;;;;;;;4.83;1.67;;;;;;;;;;4945783;29;20029;-84
2021/08/08 09:44:06;;;;;;;3.90;1.27;;;;;;;;;;4948762;28;20110;-83
2021/08/08 09:46:32;;;;;;;2.38;1.33;;;;;;;;;;4940467;28;20433;-84
2021/08/08 09:49:05;;;;;;;3.23;1.40;;;;;;;;;;4945098;29;20028;-84
2021/08/08 09:51:30;;;;;;;5.15;1.45;;;;;;;;;;4953020;29;20371;-84
2021/08/08 09:53:56;;;;;;;4.15;1.38;;;;;;;;;;4945286;28;20091;-83
2021/08/08 09:56:24;;;;;;;5.50;1.55;;;;;;;;;;4936561;29;20586;-83
2021/08/08 09:58:49;;;;;;;3.60;1.48;;;;;;;;;;4942570;29;20015;-85
2021/08/08 10:01:14;;;;;;;6.00;1.77;;;;;;;;;;4949710;29;20034;-84
2021/08/08 10:03:39;;;;;;;6.50;1.73;;;;;;;;;;4945658;29;20267;-85
2021/08/08 10:06:07;;;;;;;2.23;1.27;;;;;;;;;;4941565;29;20850;-84
2021/08/08 10:08:33;;;;;;;3.15;1.60;;;;;;;;;;4938147;29;20153;-84
2021/08/08 10:10:59;;;;;;;3.53;1.48;;;;;;;;;;4953630;28;20027;-85
2021/08/08 10:13:43;;;;;;;2.30;1.30;;;;;;;;;;4951751;28;20059;-84
2021/08/08 10:16:12;;;;;;;4.50;1.38;;;;;;;;;;4946636;29;20090;-83
2021/08/08 10:18:39;;;;;;;3.92;1.80;;;;;;;;;;4936641;28;20012;-84
2021/08/08 10:21:05;;;;;;;6.90;3.65;;;;;;;;;;4943746;29;20379;-84
2021/08/08 10:23:31;;;;;;;5.63;1.63;;;;;;;;;;4944550;29;20028;-84
2021/08/08 10:25:56;;;;;;;2.92;1.35;;;;;;;;;;4964663;28;20391;-85
2021/08/08 10:28:22;;;;;;;5.03;1.73;;;;;;;;;;4939315;29;20023;-85
2021/08/08 10:30:47;;;;;;;3.75;1.40;;;;;;;;;;4940658;29;20035;-84
2021/08/08 10:33:13;;;;;;;5.30;1.55;;;;;;;;;;4949700;28;20505;-84
2021/08/08 10:35:40;;;;;;;6.35;1.40;;;;;;;;;;4946249;28;20016;-83
2021/08/08 10:38:06;;;;;;;4.78;1.38;;;;;;;;;;4948957;29;20024;-83
2021/08/08 10:40:32;;;;;;;4.40;1.60;;;;;;;;;;4940303;29;20043;-84
2021/08/08 10:42:58;;;;;;;3.58;1.40;;;;;;;;;;4945459;28;20427;-83
2021/08/08 10:45:24;;;;;;;5.82;2.38;;;;;;;;;;4944457;28;20016;-83
2021/08/08 10:47:57;;;;;;;4.82;1.60;;;;;;;;;;4941998;29;20400;-81
2021/08/08 10:50:33;;;;;;;4.45;1.30;;;;;;;;;;4945777;28;20341;-82
2021/08/08 10:52:59;;;;;;;4.22;1.42;;;;;;;;;;4944265;28;20381;-81
2021/08/08 10:55:27;;;;;;;5.00;1.27;;;;;;;;;;4939096;29;20047;-82
2021/08/08 10:57:52;;;;;;;2.80;1.30;;;;;;;;;;4947504;28;20804;-81
2021/08/08 11:00:18;;;;;;;3.38;1.50;;;;;;;;;;4943390;29;20023;-81
2021/08/08 11:02:47;;;;;;;2.78;1.45;;;;;;;;;;4949471;28;20351;-81
2021/08/08 11:05:13;;;;;;;4.30;1.43;;;;;;;;;;4942884;29;20368;-82
2021/08/08 11:07:38;;;;;;;2.08;1.23;;;;;;;;;;4948635;28;20394;-82
2021/08/08 11:10:04;;;;;;;3.42;1.30;;;;;;;;;;4943279;28;20021;-82
2021/08/08 11:12:33;;;;;;;2.10;1.38;;;;;;;;;;4947506;29;20019;-89
2021/08/08 11:14:59;;;;;;;2.22;1.35;;;;;;;;;;4940371;29;20483;-89
2021/08/08 11:17:25;;;;;;;4.45;1.00;;;;;;;;;;4944069;29;20082;-89
2021/08/08 11:19:50;;;;;;;4.20;1.27;;;;;;;;;;4946452;29;20383;-87
2021/08/08 11:22:19;;;;;;;5.43;1.30;;;;;;;;;;4945252;29;20031;-88
2021/08/08 11:24:56;;;;;;;4.22;1.38;;;;;;;;;;4947726;28;20355;-88
2021/08/08 11:27:38;;;;;;;3.85;1.27;;;;;;;;;;4932166;29;20592;-87
2021/08/08 11:30:04;;;;;;;2.97;1.35;;;;;;;;;;4940257;29;20740;-87
2021/08/08 11:32:31;;;;;;;3.20;1.33;;;;;;;;;;4946362;29;20491;-88
2021/08/08 11:35:02;;;;;;;2.63;1.23;;;;;;;;;;4940823;29;20450;-88
2021/08/08 11:37:31;;;;;;;3.58;1.20;;;;;;;;;;4939190;29;20023;-87
2021/08/08 11:39:56;;;;;;;;;;;;;;;;;;4943753;28;20383;-87
2021/08/08 11:42:28;;;;;;;2.00;1.23;;;;;;;;;;4924438;29;19922;-86
2021/08/08 11:44:53;;;;;;;2.22;1.42;;;;;;;;;;4935454;29;20079;-85
2021/08/08 11:47:23;;;;;;;2.67;1.30;;;;;;;;;;4939632;29;20099;-86
2021/08/08 11:49:48;;;;;;;4.60;1.25;;;;;;;;;;4944374;28;20126;-90
2021/08/08 11:52:17;;;;;;;4.25;1.40;;;;;;;;;;4924067;29;20042;-89
2021/08/08 11:54:44;;;;;;;5.43;1.27;;;;;;;;;;4938889;29;20019;-87
2021/08/08 11:57:10;;;;;;;3.88;1.30;;;;;;;;;;4938652;29;20040;-88
2021/08/08 11:59:36;;;;;;;3.47;1.20;;;;;;;;;;4935434;28;20035;-87
2021/08/08 12:02:08;;;;;;;2.67;1.33;;;;;;;;;;4946851;28;20353;-89
2021/08/08 12:04:35;;;;;;;4.38;1.30;;;;;;;;;;4946538;28;20027;-88
2021/08/08 12:07:03;;;;;;;3.85;1.33;;;;;;;;;;4936639;29;20379;-88
2021/08/08 12:09:29;;;;;;;4.50;1.33;;;;;;;;;;4942119;28;20076;-89
2021/08/08 12:11:55;;;;;;;4.43;2.03;;;;;;;;;;4933998;28;20058;-89
2021/08/08 12:14:29;;;;;;;2.70;1.00;;;;;;;;;;4950201;28;20464;-89
2021/08/08 12:16:59;;;;;;;2.95;1.40;;;;;;;;;;4936471;29;20387;-87
2021/08/08 12:19:27;;;;;;;3.40;1.10;;;;;;;;;;4945042;29;20386;-89
2021/08/08 12:21:58;;;;;;;1.88;1.15;;;;;;;;;;4944707;29;20390;-89
2021/08/08 12:24:30;;;;;;;2.70;1.40;;;;;;;;;;4938492;29;20378;-89
2021/08/08 12:26:56;;;;;;;1.83;1.15;;;;;;;;;;4943649;29;20055;-88
2021/08/08 12:29:28;;;;;;;1.17;1.00;;;;;;;;;;4937660;29;20019;-89
2021/08/08 12:32:03;;;;;;;1.00;0.90;;;;;;;;;;4941951;29;20179;-89
2021/08/08 12:34:29;;;;;;;2.75;1.20;;;;;;;;;;4940911;29;20442;-88
2021/08/08 12:37:00;;;;;;;2.65;1.10;;;;;;;;;;4938661;29;20051;-88
2021/08/08 12:39:27;;;;;;;3.25;1.35;;;;;;;;;;4935174;29;20032;-89
2021/08/08 12:41:52;;;;;;;2.25;0.95;;;;;;;;;;4938387;29;20094;-88
2021/08/08 12:44:29;;;;;;;4.20;1.30;;;;;;;;;;4942426;29;20019;-87
2021/08/08 12:46:58;;;;;;;2.25;1.10;;;;;;;;;;4933068;29;20472;-88
2021/08/08 12:49:31;;;;;;;2.30;1.00;;;;;;;;;;4946725;29;20397;-87
2021/08/08 12:51:56;;;;;;;2.15;1.10;;;;;;;;;;4930715;29;20382;-87
2021/08/08 12:54:21;;;;;;;2.73;1.10;;;;;;;;;;4938553;29;20032;-87
2021/08/08 12:56:47;;;;;;;3.22;1.20;;;;;;;;;;4935824;29;20054;-87
2021/08/08 12:59:12;;;;;;;3.13;1.05;;;;;;;;;;4947573;28;20486;-87
2021/08/08 13:01:40;;;;;;;2.38;1.40;;;;;;;;;;4933532;28;20051;-86
2021/08/08 13:04:08;;;;;;;4.53;1.58;;;;;;;;;;4948409;29;20079;-85
2021/08/08 13:06:33;;;;;;;3.03;1.30;;;;;;;;;;4939088;28;20434;-86
2021/08/08 13:08:58;;;;;;;2.77;1.73;;;;;;;;;;4938508;29;20182;-86
2021/08/08 13:11:24;;;;;;;4.05;1.38;;;;;;;;;;4940813;29;20256;-86
2021/08/08 13:13:49;;;;;;;5.05;1.63;;;;;;;;;;4940832;29;20039;-86
2021/08/08 13:16:15;;;;;;;3.25;1.35;;;;;;;;;;4955811;28;20062;-85
2021/08/08 13:18:40;;;;;;;3.07;1.50;;;;;;;;;;4944561;29;20055;-86
2021/08/08 13:21:05;;;;;;;2.33;1.30;;;;;;;;;;4943730;29;20809;-86
2021/08/08 13:23:31;;;;;;;6.53;2.00;;;;;;;;;;4941401;29;20023;-86
2021/08/08 13:25:59;;;;;;;2.33;1.33;;;;;;;;;;4947112;29;20057;-85
2021/08/08 13:28:25;;;;;;;3.90;1.58;;;;;;;;;;4941045;28;20267;-85
2021/08/08 13:30:50;;;;;;;2.25;1.60;;;;;;;;;;4940267;29;20696;-84
2021/08/08 13:33:15;;;;;;;3.58;1.73;;;;;;;;;;4954675;29;20015;-85
2021/08/08 13:35:41;;;;;;;4.03;1.87;;;;;;;;;;4942334;29;20015;-86
2021/08/08 13:38:06;;;;;;;4.90;1.45;;;;;;;;;;4938199;29;20020;-87
2021/08/08 13:40:33;;;;;;;3.70;1.50;;;;;;;;;;4949212;28;20106;-87
2021/08/08 13:42:58;;;;;;;2.38;1.20;;;;;;;;;;4949000;28;20026;-86
2021/08/08 13:45:23;;;;;;;3.38;1.40;;;;;;;;;;4947186;28;20089;-82
2021/08/08 13:47:49;;;;;;;5.88;2.10;;;;;;;;;;4940905;29;20471;-82
2021/08/08 13:50:15;;;;;;;3.33;1.70;;;;;;;;;;4947427;29;20019;-82
2021/08/08 13:52:40;;;;;;;3.60;1.80;;;;;;;;;;4941241;29;20591;-82
2021/08/08 13:55:06;;;;;;;5.15;1.70;;;;;;;;;;4934722;28;20130;-82
2021/08/08 13:57:31;;;;;;;2.25;1.27;;;;;;;;;;4940197;29;20487;-82
2021/08/08 13:59:56;;;;;;;4.40;1.70;;;;;;;;;;4941511;29;20028;-83
2021/08/08 14:02:21;;;;;;;3.30;1.60;;;;;;;;;;4947720;29;21076;-82
2021/08/08 14:04:47;;;;;;;3.90;1.65;;;;;;;;;;4938585;28;20028;-81
2021/08/08 14:07:12;;;;;;;4.10;1.40;;;;;;;;;;4934852;29;20048;-82
2021/08/08 14:09:37;;;;;;;3.40;1.50;;;;;;;;;;4947316;29;20023;-82
2021/08/08 14:12:03;;;;;;;5.30;1.40;;;;;;;;;;4945205;29;20012;-81
2021/08/08 14:14:29;;;;;;;3.70;1.75;;;;;;;;;;4940858;29;20701;-82
2021/08/08 14:16:59;;;;;;;5.78;2.60;;;;;;;;;;4944071;29;20705;-81
2021/08/08 14:19:25;;;;;;;3.95;1.75;;;;;;;;;;4933908;29;20040;-81
2021/08/08 14:21:50;;;;;;;4.72;1.88;;;;;;;;;;4948676;28;20046;-81
2021/08/08 14:24:16;;;;;;;4.63;1.73;;;;;;;;;;4950882;28;20082;-80
2021/08/08 14:26:41;;;;;;;2.92;1.40;;;;;;;;;;4939370;28;20493;-81
2021/08/08 14:29:07;;;;;;;3.78;1.88;;;;;;;;;;4938212;29;20026;-84
2021/08/08 14:31:33;;;;;;;7.43;2.00;;;;;;;;;;4944510;29;20023;-84
2021/08/08 14:33:58;;;;;;;7.00;2.25;;;;;;;;;;4946875;28;20102;-82
2021/08/08 14:36:24;;;;;;;5.45;1.75;;;;;;;;;;4947122;29;20467;-83